Time;durP1;ratioP1;P1;durP2;ratioP2;P2;SDS_P1;SDS_P2;PMS_P1;PMS_P2;Temp;Humidity;BMP_temperature;BMP_pressure;BME280_temperature;BME280_humidity;BME280_pressure;Samples;Min_cycle;Max_cycle;Signal;HPM_P1;HPM_P2
2023/09/15 00:01:31;;;;;;;3.40;1.30;;;16.40;99.90;;;;;;4933474;29;20581;-77
2023/09/15 00:03:58;;;;;;;3.50;1.13;;;16.30;99.90;;;;;;4919041;29;20990;-77
2023/09/15 00:06:24;;;;;;;2.17;1.23;;;16.30;99.90;;;;;;4934908;29;20585;-76
2023/09/15 00:08:50;;;;;;;2.47;1.00;;;16.30;99.90;;;;;;4937943;29;20709;-77
2023/09/15 00:11:16;;;;;;;3.20;1.80;;;16.30;99.90;;;;;;4937531;29;20627;-77
2023/09/15 00:13:44;;;;;;;2.33;1.10;;;16.30;99.90;;;;;;4939235;29;20604;-77
2023/09/15 00:16:10;;;;;;;3.90;1.73;;;16.30;99.90;;;;;;4921322;29;20581;-78
2023/09/15 00:18:36;;;;;;;1.97;1.10;;;16.30;99.90;;;;;;4937127;29;20691;-78
2023/09/15 00:21:02;;;;;;;3.03;1.30;;;16.20;99.90;;;;;;4924603;29;20560;-78
2023/09/15 00:23:28;;;;;;;2.33;1.13;;;16.20;99.90;;;;;;4939214;29;20594;-78
2023/09/15 00:25:54;;;;;;;2.00;1.10;;;16.20;99.90;;;;;;4940011;29;20624;-78
2023/09/15 00:28:20;;;;;;;2.00;1.20;;;16.20;99.90;;;;;;4937825;29;21165;-77
2023/09/15 00:30:49;;;;;;;3.00;1.20;;;16.20;99.90;;;;;;4934376;29;20644;-77
2023/09/15 00:33:16;;;;;;;1.90;1.00;;;16.20;99.90;;;;;;4917534;29;20581;-77
2023/09/15 00:35:42;;;;;;;2.00;0.90;;;16.10;99.90;;;;;;4918509;29;21167;-77
2023/09/15 00:38:09;;;;;;;3.83;1.20;;;16.10;99.90;;;;;;4918196;29;20656;-77
2023/09/15 00:40:36;;;;;;;2.47;1.67;;;16.10;99.90;;;;;;4918749;29;20593;-77
2023/09/15 00:43:02;;;;;;;2.70;1.30;;;16.10;99.90;;;;;;4935372;29;20584;-77
2023/09/15 00:45:28;;;;;;;2.53;1.23;;;16.10;99.90;;;;;;4934230;29;20213;-77
2023/09/15 00:47:57;;;;;;;4.17;1.60;;;16.10;99.90;;;;;;4902506;29;20613;-77
2023/09/15 00:50:29;;;;;;;2.93;1.33;;;16.10;99.90;;;;;;4934133;29;20181;-76
2023/09/15 00:53:02;;;;;;;1.93;1.00;;;16.00;99.90;;;;;;4918107;29;20592;-76
2023/09/15 00:55:29;;;;;;;1.60;0.90;;;16.00;99.90;;;;;;4934126;29;21152;-77
2023/09/15 00:57:56;;;;;;;2.70;1.23;;;16.00;99.90;;;;;;4938926;29;21475;-77
2023/09/15 01:00:22;;;;;;;2.83;1.03;;;16.00;99.90;;;;;;4935438;29;20624;-77
2023/09/15 01:02:50;;;;;;;3.17;1.10;;;16.00;99.90;;;;;;4933989;29;20952;-77
2023/09/15 01:05:23;;;;;;;3.07;1.60;;;16.00;99.90;;;;;;4918170;29;20581;-77
2023/09/15 01:07:53;;;;;;;1.90;1.03;;;16.00;99.90;;;;;;4935262;29;21037;-76
2023/09/15 01:10:23;;;;;;;2.60;1.33;;;15.90;99.90;;;;;;4918010;29;20592;-76
2023/09/15 01:12:51;;;;;;;2.90;1.30;;;15.90;99.90;;;;;;4917710;29;20589;-78
2023/09/15 01:15:17;;;;;;;4.20;1.37;;;15.90;99.90;;;;;;4933530;29;20601;-77
2023/09/15 01:18:05;;;;;;;2.87;1.20;;;15.90;99.90;;;;;;4917409;29;21061;-76
2023/09/15 01:21:07;;;;;;;3.37;1.23;;;15.80;99.90;;;;;;4934767;29;20611;-77
2023/09/15 01:23:50;;;;;;;4.13;1.30;;;15.80;99.90;;;;;;4946396;29;20945;-77
2023/09/15 01:26:32;;;;;;;2.20;1.30;;;15.80;99.90;;;;;;4945122;29;20968;-77
2023/09/15 01:29:25;;;;;;;4.17;1.13;;;15.80;99.90;;;;;;4944957;29;20615;-77
2023/09/15 01:31:52;;;;;;;2.50;1.17;;;15.80;99.90;;;;;;4935947;29;20661;-78
2023/09/15 01:34:18;;;;;;;4.47;1.30;;;15.80;99.90;;;;;;4941949;29;20616;-78
2023/09/15 01:36:46;;;;;;;2.20;1.17;;;15.70;99.90;;;;;;4952067;29;20584;-78
2023/09/15 01:39:12;;;;;;;2.67;1.20;;;15.70;99.90;;;;;;4926344;29;20681;-78
2023/09/15 01:41:38;;;;;;;2.03;1.00;;;15.70;99.90;;;;;;4933993;29;20584;-78
2023/09/15 01:44:04;;;;;;;2.27;1.17;;;15.70;99.90;;;;;;4952837;28;20228;-78
2023/09/15 01:46:30;;;;;;;2.90;1.17;;;15.70;99.90;;;;;;4953184;29;20636;-79
2023/09/15 01:48:57;;;;;;;1.60;0.90;;;15.70;99.90;;;;;;4952261;29;20963;-78
2023/09/15 01:51:23;;;;;;;4.17;1.20;;;15.60;99.90;;;;;;4943423;29;20180;-77
2023/09/15 01:53:52;;;;;;;2.57;1.30;;;15.60;99.90;;;;;;4935559;29;20581;-77
2023/09/15 01:56:18;;;;;;;3.20;1.10;;;15.60;99.90;;;;;;4951523;29;20702;-78
2023/09/15 01:58:45;;;;;;;2.43;1.17;;;15.60;99.90;;;;;;4951166;29;20775;-78
2023/09/15 02:01:11;;;;;;;2.27;1.30;;;15.60;99.90;;;;;;4931440;29;20590;-78
2023/09/15 02:03:37;;;;;;;4.70;1.50;;;15.60;99.90;;;;;;4915138;29;20582;-77
2023/09/15 02:06:04;;;;;;;3.43;1.00;;;15.60;99.90;;;;;;4914186;29;20641;-77
2023/09/15 02:08:31;;;;;;;2.10;1.03;;;15.50;99.90;;;;;;4913623;29;20202;-78
2023/09/15 02:10:57;;;;;;;3.10;1.47;;;15.50;99.90;;;;;;4915146;29;20648;-77
2023/09/15 02:13:23;;;;;;;2.57;1.10;;;15.50;99.90;;;;;;4890114;29;20607;-79
2023/09/15 02:15:53;;;;;;;2.30;1.20;;;15.50;99.90;;;;;;4934291;29;20737;-78
2023/09/15 02:18:19;;;;;;;3.80;1.00;;;15.50;99.90;;;;;;4933641;29;20236;-78
2023/09/15 02:20:53;;;;;;;3.87;1.17;;;15.40;99.90;;;;;;4933682;29;20566;-78
2023/09/15 02:23:19;;;;;;;2.47;1.13;;;15.40;99.90;;;;;;4918058;29;20598;-77
2023/09/15 02:25:44;;;;;;;2.20;1.10;;;15.40;99.90;;;;;;4935543;29;21257;-77
2023/09/15 02:28:10;;;;;;;3.63;2.03;;;15.40;99.90;;;;;;4925319;29;20206;-77
2023/09/15 02:30:37;;;;;;;4.27;2.03;;;15.40;99.90;;;;;;4915453;29;20594;-77
2023/09/15 02:33:03;;;;;;;3.40;1.50;;;15.30;99.90;;;;;;4915177;29;20587;-77
2023/09/15 02:35:29;;;;;;;2.07;1.20;;;15.30;99.90;;;;;;4916616;29;20671;-77
2023/09/15 02:37:55;;;;;;;5.90;2.93;;;15.30;99.90;;;;;;4953051;29;21262;-77
2023/09/15 02:40:23;;;;;;;3.93;1.40;;;15.30;99.90;;;;;;4921764;29;20207;-76
2023/09/15 02:42:50;;;;;;;3.60;1.50;;;15.30;99.90;;;;;;4954588;29;20172;-77
2023/09/15 02:45:16;;;;;;;3.83;1.80;;;15.30;99.90;;;;;;4955481;29;20642;-77
2023/09/15 02:47:42;;;;;;;4.30;1.50;;;15.30;99.90;;;;;;4960757;29;20650;-77
2023/09/15 02:50:08;;;;;;;3.30;1.50;;;15.20;99.90;;;;;;4955091;29;20584;-77
2023/09/15 02:52:35;;;;;;;4.93;1.53;;;15.20;99.90;;;;;;4953270;29;20173;-77
2023/09/15 02:55:04;;;;;;;2.97;1.30;;;15.20;99.90;;;;;;4928069;29;20593;-77
2023/09/15 02:57:30;;;;;;;4.40;1.37;;;15.20;99.90;;;;;;4924134;29;20660;-77
2023/09/15 02:59:55;;;;;;;2.73;1.30;;;15.20;99.90;;;;;;4928181;29;20982;-77
2023/09/15 03:02:21;;;;;;;2.73;1.00;;;15.10;99.90;;;;;;4909790;29;20592;-77
2023/09/15 03:04:48;;;;;;;2.93;1.17;;;15.10;99.90;;;;;;4925305;29;20200;-77
2023/09/15 03:07:14;;;;;;;2.43;1.20;;;15.10;99.90;;;;;;4944274;29;20583;-78
2023/09/15 03:09:40;;;;;;;2.70;1.37;;;15.10;99.90;;;;;;4949112;29;20625;-77
2023/09/15 03:12:06;;;;;;;5.07;1.53;;;15.10;99.90;;;;;;4948179;29;20581;-78
2023/09/15 03:14:32;;;;;;;3.03;1.33;;;15.10;99.90;;;;;;4944891;29;20577;-78
2023/09/15 03:16:58;;;;;;;4.03;1.20;;;15.10;99.90;;;;;;4904485;29;20185;-77
2023/09/15 03:19:25;;;;;;;2.90;1.60;;;15.00;99.90;;;;;;4936028;29;20644;-77
2023/09/15 03:21:52;;;;;;;5.00;1.47;;;15.00;99.90;;;;;;4935770;29;20928;-78
2023/09/15 03:24:18;;;;;;;4.20;1.47;;;15.00;99.90;;;;;;4945435;29;20669;-77
2023/09/15 03:26:45;;;;;;;4.53;1.40;;;15.00;99.90;;;;;;4939404;29;20632;-77
2023/09/15 03:29:11;;;;;;;4.23;1.43;;;15.00;99.90;;;;;;4945894;29;20710;-77
2023/09/15 03:31:38;;;;;;;3.57;1.50;;;15.00;99.90;;;;;;4952645;29;20744;-78
2023/09/15 03:34:06;;;;;;;3.90;1.10;;;15.00;99.90;;;;;;4931530;29;20192;-78
2023/09/15 03:36:32;;;;;;;4.57;1.60;;;14.90;99.90;;;;;;4953779;29;20971;-78
2023/09/15 03:38:58;;;;;;;3.73;1.80;;;14.90;99.90;;;;;;4953564;29;20322;-78
2023/09/15 03:41:25;;;;;;;3.80;1.50;;;14.90;99.90;;;;;;4953896;29;20587;-78
2023/09/15 03:43:51;;;;;;;3.27;1.60;;;14.90;99.90;;;;;;4940649;29;20605;-78
2023/09/15 03:46:18;;;;;;;3.00;1.50;;;14.90;99.90;;;;;;4928255;29;20591;-78
2023/09/15 03:48:44;;;;;;;2.60;1.17;;;14.80;99.90;;;;;;4937359;29;20718;-78
2023/09/15 03:51:10;;;;;;;3.37;1.57;;;14.80;99.90;;;;;;4905689;29;20242;-77
2023/09/15 03:53:36;;;;;;;2.90;1.47;;;14.80;99.90;;;;;;4913790;29;20598;-77
2023/09/15 03:56:03;;;;;;;2.10;1.20;;;14.70;99.90;;;;;;4935451;29;20652;-78
2023/09/15 03:58:30;;;;;;;5.70;1.40;;;14.70;99.90;;;;;;4912925;29;20202;-78
2023/09/15 04:00:55;;;;;;;3.80;1.53;;;14.70;99.90;;;;;;4907369;29;20585;-79
2023/09/15 04:03:22;;;;;;;3.60;1.60;;;14.70;99.90;;;;;;4938303;29;20189;-78
2023/09/15 04:05:48;;;;;;;2.70;1.30;;;14.70;99.90;;;;;;4920920;29;20191;-78
2023/09/15 04:08:14;;;;;;;2.53;1.50;;;14.70;99.90;;;;;;4935743;29;20777;-78
2023/09/15 04:10:41;;;;;;;3.43;1.77;;;14.70;99.90;;;;;;4920003;29;20688;-79
2023/09/15 04:13:06;;;;;;;4.00;1.70;;;14.70;99.90;;;;;;4928741;29;20589;-79
2023/09/15 04:15:32;;;;;;;3.23;1.20;;;14.70;99.90;;;;;;4915497;29;20620;-78
2023/09/15 04:17:59;;;;;;;4.77;1.90;;;14.60;99.90;;;;;;4935193;29;20574;-78
2023/09/15 04:20:28;;;;;;;4.07;1.77;;;14.60;99.90;;;;;;4934312;29;20185;-78
2023/09/15 04:22:54;;;;;;;3.77;1.57;;;14.60;99.90;;;;;;4933929;29;20592;-78
2023/09/15 04:25:20;;;;;;;3.27;1.90;;;14.60;99.90;;;;;;4935843;29;21158;-78
2023/09/15 04:27:46;;;;;;;4.17;2.00;;;14.60;99.90;;;;;;4908964;29;20657;-78
2023/09/15 04:30:14;;;;;;;4.35;1.63;;;14.70;99.90;;;;;;4915011;29;21146;-77
2023/09/15 04:32:46;;;;;;;5.40;1.37;;;14.60;99.90;;;;;;4923141;29;20177;-78
2023/09/15 04:35:12;;;;;;;6.57;1.60;;;14.60;99.90;;;;;;4918499;29;20616;-77
2023/09/15 04:37:39;;;;;;;4.53;1.50;;;14.60;99.90;;;;;;4936551;29;20210;-78
2023/09/15 04:40:07;;;;;;;4.60;2.07;;;14.60;99.90;;;;;;4919571;29;20268;-78
2023/09/15 04:42:33;;;;;;;3.97;2.30;;;14.60;99.90;;;;;;4917861;29;20687;-78
2023/09/15 04:45:02;;;;;;;7.00;1.75;;;14.60;99.90;;;;;;4917970;29;20621;-77
2023/09/15 04:47:33;;;;;;;4.27;1.77;;;14.60;99.90;;;;;;4933577;29;20216;-78
2023/09/15 04:50:06;;;;;;;8.77;2.17;;;14.50;99.90;;;;;;4902623;29;20692;-78
2023/09/15 04:52:31;;;;;;;4.93;1.87;;;14.50;99.90;;;;;;4933887;29;20597;-78
2023/09/15 04:54:57;;;;;;;3.57;1.50;;;14.50;99.90;;;;;;4917746;29;20603;-78
2023/09/15 04:57:23;;;;;;;6.03;2.13;;;14.50;99.90;;;;;;4933604;29;20177;-78
2023/09/15 04:59:53;;;;;;;7.37;1.80;;;14.50;99.90;;;;;;4917832;29;20193;-77
2023/09/15 05:02:25;;;;;;;6.05;1.70;;;14.50;99.90;;;;;;4939415;29;20580;-78
2023/09/15 05:05:27;;;;;;;3.53;1.60;;;14.50;99.90;;;;;;4916639;29;20270;-77
2023/09/15 05:07:52;;;;;;;4.37;1.60;;;14.50;99.90;;;;;;4903484;29;20656;-78
2023/09/15 05:10:22;;;;;;;4.80;1.63;;;14.50;99.90;;;;;;4902700;29;20677;-78
2023/09/15 05:12:48;;;;;;;2.67;1.30;;;14.50;99.90;;;;;;4924607;29;20193;-78
2023/09/15 05:15:14;;;;;;;9.07;2.20;;;14.50;99.90;;;;;;4931009;29;21233;-78
2023/09/15 05:17:40;;;;;;;4.50;1.63;;;14.50;99.90;;;;;;4925539;29;20713;-78
2023/09/15 05:20:06;;;;;;;5.40;2.27;;;14.50;99.90;;;;;;4936815;28;20592;-78
2023/09/15 05:22:32;;;;;;;7.03;2.03;;;14.50;99.90;;;;;;4898772;29;20593;-78
2023/09/15 05:24:58;;;;;;;4.77;2.17;;;14.50;99.90;;;;;;4917513;29;20593;-77
2023/09/15 05:27:24;;;;;;;4.07;1.80;;;14.60;99.90;;;;;;4928580;29;20654;-78
2023/09/15 05:29:50;;;;;;;3.47;1.90;;;14.50;99.90;;;;;;4929969;29;20185;-78
2023/09/15 05:32:16;;;;;;;3.83;1.53;;;14.50;99.90;;;;;;4911360;29;20181;-77
2023/09/15 05:34:42;;;;;;;5.07;1.83;;;14.60;99.90;;;;;;4917420;29;20589;-77
2023/09/15 05:37:08;;;;;;;8.80;2.47;;;14.60;99.90;;;;;;4930628;29;20586;-78
2023/09/15 05:39:33;;;;;;;6.20;2.00;;;14.60;99.90;;;;;;4921963;29;20588;-77
2023/09/15 05:42:00;;;;;;;6.43;2.33;;;14.60;99.90;;;;;;4916907;29;20203;-77
2023/09/15 05:44:26;;;;;;;4.93;1.77;;;14.60;99.90;;;;;;4925518;29;21196;-78
2023/09/15 05:46:55;;;;;;;3.17;1.70;;;14.70;99.90;;;;;;4923049;29;20601;-78
2023/09/15 05:49:20;;;;;;;4.33;1.93;;;14.70;99.90;;;;;;4928432;29;20641;-77
2023/09/15 05:51:46;;;;;;;4.70;1.50;;;14.70;99.90;;;;;;4912648;29;20923;-77
2023/09/15 05:54:12;;;;;;;4.30;1.97;;;14.80;99.90;;;;;;4924229;29;20580;-78
2023/09/15 05:56:38;;;;;;;4.23;1.90;;;14.80;99.90;;;;;;4926621;29;20184;-77
2023/09/15 05:59:04;;;;;;;3.03;1.60;;;14.80;99.90;;;;;;4930834;29;20205;-77
2023/09/15 06:01:30;;;;;;;5.83;1.60;;;14.80;99.90;;;;;;4921673;29;20193;-77
2023/09/15 06:03:56;;;;;;;4.73;2.10;;;14.90;99.90;;;;;;4925445;29;20953;-78
2023/09/15 06:06:22;;;;;;;3.83;1.93;;;14.90;99.90;;;;;;4926154;29;20585;-78
2023/09/15 06:08:47;;;;;;;7.30;2.43;;;14.90;99.90;;;;;;4924691;29;20204;-78
2023/09/15 06:11:13;;;;;;;4.13;2.30;;;15.00;99.90;;;;;;4925131;29;20199;-77
2023/09/15 06:13:39;;;;;;;5.30;1.60;;;15.00;99.90;;;;;;4901525;29;20181;-78
2023/09/15 06:16:05;;;;;;;2.80;1.50;;;15.00;99.90;;;;;;4927569;29;20181;-78
2023/09/15 06:18:31;;;;;;;6.13;1.93;;;15.10;99.90;;;;;;4937452;29;20196;-78
2023/09/15 06:20:57;;;;;;;5.07;1.87;;;15.20;99.90;;;;;;4938499;29;20581;-78
2023/09/15 06:23:24;;;;;;;3.50;1.37;;;15.20;99.90;;;;;;4931722;29;20597;-78
2023/09/15 06:25:51;;;;;;;2.63;1.30;;;15.30;99.90;;;;;;4917111;29;20612;-78
2023/09/15 06:28:17;;;;;;;4.70;1.33;;;15.30;99.90;;;;;;4943200;29;20740;-78
2023/09/15 06:30:43;;;;;;;2.50;1.20;;;15.40;99.90;;;;;;4931954;29;20675;-77
2023/09/15 06:33:08;;;;;;;5.13;1.87;;;15.40;99.90;;;;;;4936560;29;20688;-78
2023/09/15 06:35:34;;;;;;;4.63;1.77;;;15.50;99.90;;;;;;4917327;29;20213;-77
2023/09/15 06:38:06;;;;;;;11.27;2.40;;;15.60;99.90;;;;;;4919358;29;20280;-78
2023/09/15 06:40:35;;;;;;;3.40;1.57;;;15.70;99.90;;;;;;4935901;29;21252;-78
2023/09/15 06:43:04;;;;;;;8.57;2.10;;;15.80;99.90;;;;;;4935526;29;20601;-78
2023/09/15 06:45:31;;;;;;;4.57;1.87;;;15.80;99.90;;;;;;4937075;29;21152;-77
2023/09/15 06:47:59;;;;;;;7.30;1.70;;;15.90;99.90;;;;;;4918769;29;21066;-77
2023/09/15 06:50:25;;;;;;;4.13;1.43;;;16.00;99.90;;;;;;4937121;29;20576;-77
2023/09/15 06:52:50;;;;;;;3.60;1.70;;;16.10;99.90;;;;;;4936826;29;20648;-77
2023/09/15 06:55:16;;;;;;;3.03;1.20;;;16.20;99.90;;;;;;4937840;29;20582;-77
2023/09/15 06:57:42;;;;;;;3.37;2.13;;;16.30;99.90;;;;;;4897436;29;20209;-77
2023/09/15 07:00:09;;;;;;;3.33;1.53;;;16.40;99.90;;;;;;4916493;29;20216;-76
2023/09/15 07:02:35;;;;;;;5.20;2.20;;;16.60;99.90;;;;;;4932639;29;20267;-77
2023/09/15 07:05:00;;;;;;;6.03;1.60;;;16.80;99.90;;;;;;4940475;29;20628;-75
2023/09/15 07:07:26;;;;;;;2.93;1.40;;;17.30;99.90;;;;;;4932459;29;21086;-76
2023/09/15 07:09:53;;;;;;;4.57;1.40;;;18.00;99.90;;;;;;4941695;29;20640;-76
2023/09/15 07:12:19;;;;;;;4.67;1.40;;;18.50;99.90;;;;;;4938160;29;20237;-76
2023/09/15 07:14:45;;;;;;;3.10;1.30;;;19.00;99.90;;;;;;4941248;29;20584;-77
2023/09/15 07:17:11;;;;;;;4.57;1.80;;;19.60;99.90;;;;;;4897112;29;20181;-77
2023/09/15 07:19:37;;;;;;;4.57;1.63;;;20.30;99.90;;;;;;4936046;29;21184;-76
2023/09/15 07:22:02;;;;;;;6.87;1.33;;;20.90;99.90;;;;;;4933401;29;20200;-75
2023/09/15 07:24:28;;;;;;;4.00;1.23;;;21.70;99.90;;;;;;4900502;29;20938;-75
2023/09/15 07:26:54;;;;;;;2.20;1.10;;;22.60;99.90;;;;;;4925831;29;20268;-76
2023/09/15 07:29:19;;;;;;;4.87;1.20;;;23.50;99.90;;;;;;4918837;29;20204;-77
2023/09/15 07:31:45;;;;;;;3.47;1.57;;;24.20;99.90;;;;;;4951720;29;20172;-76
2023/09/15 07:34:12;;;;;;;3.80;1.17;;;24.60;99.90;;;;;;4936001;29;20185;-75
2023/09/15 07:36:38;;;;;;;4.57;1.10;;;25.00;99.90;;;;;;4934404;29;20176;-76
2023/09/15 07:39:05;;;;;;;2.80;1.10;;;25.40;99.90;;;;;;4935579;29;21293;-77
2023/09/15 07:41:31;;;;;;;2.70;1.50;;;25.80;99.90;;;;;;4953120;29;20215;-77
2023/09/15 07:44:00;;;;;;;4.63;1.00;;;26.40;99.90;;;;;;4921400;29;21184;-76
2023/09/15 07:46:27;;;;;;;3.43;1.20;;;26.80;99.90;;;;;;4942720;29;20595;-77
2023/09/15 07:48:54;;;;;;;4.23;1.60;;;27.20;99.90;;;;;;4900889;29;20664;-76
2023/09/15 07:51:19;;;;;;;3.33;1.10;;;27.40;99.90;;;;;;4935767;29;20577;-76
2023/09/15 07:53:45;;;;;;;2.50;1.00;;;27.60;99.90;;;;;;4899982;29;20954;-76
2023/09/15 07:56:11;;;;;;;2.60;0.93;;;27.80;99.90;;;;;;4938073;29;20183;-76
2023/09/15 07:58:36;;;;;;;2.87;1.10;;;27.90;99.40;;;;;;4932254;29;20229;-76
2023/09/15 08:01:02;;;;;;;3.27;1.17;;;28.20;99.80;;;;;;4928571;29;20182;-76
2023/09/15 08:03:28;;;;;;;7.53;1.20;;;28.30;97.60;;;;;;4926622;29;20272;-76
2023/09/15 08:05:53;;;;;;;4.53;1.43;;;28.40;96.00;;;;;;4911317;29;20672;-76
2023/09/15 08:08:19;;;;;;;2.50;1.30;;;28.40;93.60;;;;;;4933405;29;20206;-76
2023/09/15 08:10:46;;;;;;;3.53;1.30;;;28.60;95.40;;;;;;4932808;29;20192;-76
2023/09/15 08:13:11;;;;;;;2.93;0.90;;;28.90;95.20;;;;;;4921954;29;20646;-76
2023/09/15 08:15:37;;;;;;;5.23;1.27;;;29.00;93.80;;;;;;4932607;29;20646;-76
2023/09/15 08:18:06;;;;;;;3.17;1.20;;;29.00;93.20;;;;;;4919745;29;20214;-76
2023/09/15 08:20:31;;;;;;;4.00;1.20;;;29.20;92.20;;;;;;4934830;29;20236;-76
2023/09/15 08:22:58;;;;;;;2.10;1.13;;;29.50;92.20;;;;;;4944390;29;20594;-76
2023/09/15 08:25:24;;;;;;;2.20;0.90;;;29.70;90.50;;;;;;4940161;29;20263;-76
2023/09/15 08:27:50;;;;;;;2.87;0.90;;;29.90;90.80;;;;;;4933726;29;20668;-76
2023/09/15 08:30:16;;;;;;;2.00;1.10;;;30.00;88.50;;;;;;4935174;29;20582;-76
2023/09/15 08:32:43;;;;;;;3.20;1.40;;;30.00;85.90;;;;;;4917947;29;20207;-76
2023/09/15 08:35:09;;;;;;;8.13;1.30;;;30.00;85.70;;;;;;4918101;29;20592;-76
2023/09/15 08:37:34;;;;;;;3.90;1.30;;;30.40;82.90;;;;;;4917781;29;20605;-76
2023/09/15 08:40:00;;;;;;;4.67;1.33;;;30.50;82.20;;;;;;4918023;29;20192;-76
2023/09/15 08:42:28;;;;;;;3.70;1.23;;;30.30;77.50;;;;;;4922493;29;20209;-76
2023/09/15 08:44:56;;;;;;;2.57;1.07;;;30.10;77.80;;;;;;4932708;29;20686;-76
2023/09/15 08:47:24;;;;;;;2.00;1.00;;;30.20;78.50;;;;;;4917526;29;20690;-76
2023/09/15 08:49:54;;;;;;;2.97;1.37;;;30.50;80.60;;;;;;4917602;29;20599;-77
2023/09/15 08:52:20;;;;;;;2.50;1.00;;;30.80;80.60;;;;;;4917511;29;20592;-76
2023/09/15 08:54:47;;;;;;;2.80;0.90;;;31.30;80.00;;;;;;4937485;29;20589;-76
2023/09/15 08:57:13;;;;;;;2.70;1.20;;;31.50;79.80;;;;;;4900878;29;20614;-76
2023/09/15 08:59:40;;;;;;;2.60;1.10;;;31.60;72.40;;;;;;4900521;29;20631;-76
2023/09/15 09:02:11;;;;;;;3.63;1.20;;;31.80;73.20;;;;;;4916601;29;20646;-76
2023/09/15 09:04:38;;;;;;;5.27;2.33;;;31.90;72.20;;;;;;4908911;29;21007;-76
2023/09/15 09:07:05;;;;;;;2.83;1.00;;;31.90;70.30;;;;;;4915191;29;20602;-75
2023/09/15 09:09:31;;;;;;;2.10;1.20;;;31.70;68.20;;;;;;4930619;29;20642;-76
2023/09/15 09:11:57;;;;;;;3.90;1.20;;;31.50;68.00;;;;;;4908761;29;20621;-76
2023/09/15 09:14:24;;;;;;;2.90;1.00;;;31.60;69.70;;;;;;4927000;29;21192;-76
2023/09/15 09:16:51;;;;;;;2.73;1.00;;;31.80;69.60;;;;;;4927464;29;20597;-76
2023/09/15 09:19:17;;;;;;;2.60;1.10;;;32.20;68.70;;;;;;4930828;29;20656;-77
2023/09/15 09:21:42;;;;;;;2.80;1.10;;;32.40;67.50;;;;;;4933716;29;20621;-77
2023/09/15 09:24:09;;;;;;;4.30;1.27;;;32.70;67.40;;;;;;4934470;29;20646;-77
2023/09/15 09:26:35;;;;;;;1.90;0.80;;;32.60;62.10;;;;;;4944088;29;20346;-77
2023/09/15 09:29:02;;;;;;;5.77;1.20;;;32.50;61.80;;;;;;4923687;29;20656;-77
2023/09/15 09:31:29;;;;;;;3.80;1.20;;;32.30;58.60;;;;;;4946349;29;20648;-77
2023/09/15 09:33:55;;;;;;;3.10;1.10;;;32.10;60.10;;;;;;4919788;29;20758;-77
2023/09/15 09:36:21;;;;;;;4.17;1.40;;;32.00;59.90;;;;;;4930898;29;20589;-77
2023/09/15 09:38:49;;;;;;;3.07;1.00;;;31.90;60.90;;;;;;4923837;29;20712;-77
2023/09/15 09:41:21;;;;;;;5.83;1.40;;;32.10;60.80;;;;;;4922844;29;20257;-76
2023/09/15 09:43:48;;;;;;;2.40;1.10;;;32.30;60.60;;;;;;4912631;29;20598;-76
2023/09/15 09:46:21;;;;;;;2.73;1.30;;;32.50;60.50;;;;;;4913345;29;20586;-76
2023/09/15 09:48:49;;;;;;;4.90;0.93;;;32.80;59.50;;;;;;4914577;29;20621;-76
2023/09/15 09:51:16;;;;;;;3.80;1.33;;;32.90;59.40;;;;;;4924528;29;20589;-76
2023/09/15 09:53:41;;;;;;;2.67;0.93;;;33.20;59.70;;;;;;4932552;29;20591;-76
2023/09/15 09:56:07;;;;;;;3.80;1.10;;;33.30;57.70;;;;;;4932380;29;20605;-76
2023/09/15 09:58:36;;;;;;;2.70;1.03;;;33.40;57.30;;;;;;4921748;29;20208;-76
2023/09/15 10:01:04;;;;;;;2.27;0.90;;;33.30;56.60;;;;;;4908328;29;20587;-76
2023/09/15 10:03:30;;;;;;;2.33;1.00;;;33.30;57.00;;;;;;4917895;29;20601;-76
2023/09/15 10:05:56;;;;;;;4.63;1.00;;;33.40;56.90;;;;;;4938416;29;20589;-75
2023/09/15 10:08:22;;;;;;;1.83;0.90;;;33.50;55.60;;;;;;4932212;29;21219;-75
2023/09/15 10:10:50;;;;;;;2.03;1.30;;;33.60;56.40;;;;;;4916529;29;20688;-75
2023/09/15 10:13:16;;;;;;;3.30;0.93;;;33.70;55.30;;;;;;4932271;29;20650;-75
2023/09/15 10:15:43;;;;;;;1.93;1.00;;;33.80;54.90;;;;;;4940962;29;20581;-75
2023/09/15 10:18:14;;;;;;;3.27;1.20;;;33.80;55.00;;;;;;4951161;29;20655;-75
2023/09/15 10:20:42;;;;;;;4.07;1.10;;;34.00;55.20;;;;;;4936914;29;20601;-76
2023/09/15 10:23:10;;;;;;;2.93;1.17;;;34.30;54.90;;;;;;4933009;29;20597;-76
2023/09/15 10:25:44;;;;;;;1.87;1.00;;;34.60;55.00;;;;;;4932314;29;20589;-76
2023/09/15 10:28:11;;;;;;;2.37;1.33;;;34.60;52.90;;;;;;4909001;29;20905;-76
2023/09/15 10:30:38;;;;;;;1.93;0.97;;;34.50;51.70;;;;;;4916164;29;20593;-76
2023/09/15 10:33:07;;;;;;;3.50;1.40;;;33.90;49.70;;;;;;4916138;29;20744;-77
2023/09/15 10:35:33;;;;;;;1.90;1.00;;;33.50;51.00;;;;;;4932087;29;20589;-77
2023/09/15 10:38:03;;;;;;;2.33;1.07;;;33.20;51.90;;;;;;4915813;29;20659;-77
2023/09/15 10:40:49;;;;;;;3.10;0.80;;;33.00;52.00;;;;;;4933197;29;20593;-77
2023/09/15 10:43:19;;;;;;;2.33;1.20;;;32.90;52.90;;;;;;4900132;29;20585;-76
2023/09/15 10:46:02;;;;;;;3.50;1.30;;;32.90;51.70;;;;;;4933162;29;20589;-76
2023/09/15 10:48:47;;;;;;;2.33;1.10;;;32.40;50.60;;;;;;4926325;29;20613;-76
2023/09/15 10:51:16;;;;;;;1.70;0.70;;;32.40;52.50;;;;;;4932932;29;20648;-76
2023/09/15 10:53:49;;;;;;;2.23;1.00;;;32.40;52.20;;;;;;4912940;29;20609;-76
2023/09/15 10:56:17;;;;;;;1.80;0.90;;;32.20;51.30;;;;;;4914800;29;20659;-77
2023/09/15 10:58:46;;;;;;;2.30;1.03;;;32.30;52.20;;;;;;4931475;29;20824;-76
2023/09/15 11:01:14;;;;;;;2.87;0.90;;;32.40;52.20;;;;;;4915259;29;20588;-77
2023/09/15 11:03:41;;;;;;;1.73;0.97;;;32.30;52.10;;;;;;4897017;29;20598;-77
2023/09/15 11:06:09;;;;;;;1.80;0.90;;;32.40;52.50;;;;;;4929958;29;20689;-77
2023/09/15 11:08:36;;;;;;;2.07;1.03;;;32.40;52.20;;;;;;4915657;29;20775;-77
2023/09/15 11:11:04;;;;;;;1.83;0.80;;;32.40;52.10;;;;;;4932423;29;20664;-76
2023/09/15 11:13:31;;;;;;;2.97;0.90;;;32.40;52.20;;;;;;4931619;29;21164;-76
2023/09/15 11:15:57;;;;;;;2.33;0.90;;;32.50;51.90;;;;;;4932828;29;20643;-75
2023/09/15 11:18:23;;;;;;;1.63;0.80;;;32.40;51.00;;;;;;4934305;29;20998;-76
2023/09/15 11:20:49;;;;;;;1.97;0.90;;;32.20;51.30;;;;;;4919152;29;20212;-77
2023/09/15 11:23:18;;;;;;;2.03;0.80;;;32.10;51.30;;;;;;4936374;29;20612;-77
2023/09/15 11:25:47;;;;;;;1.77;0.70;;;32.00;50.70;;;;;;4936787;29;20188;-77
2023/09/15 11:28:16;;;;;;;3.00;0.90;;;31.90;51.20;;;;;;4900416;29;20703;-77
2023/09/15 11:30:42;;;;;;;1.50;0.80;;;31.90;51.50;;;;;;4913935;29;20625;-77
2023/09/15 11:33:08;;;;;;;1.60;0.80;;;31.70;49.20;;;;;;4936051;29;20651;-76
2023/09/15 11:35:34;;;;;;;1.60;0.80;;;31.60;50.50;;;;;;4938081;29;20603;-77
2023/09/15 11:38:03;;;;;;;1.53;0.83;;;31.60;50.80;;;;;;4899810;29;20307;-77
2023/09/15 11:40:28;;;;;;;1.67;0.77;;;31.50;50.10;;;;;;4900085;29;20623;-77
2023/09/15 11:43:01;;;;;;;1.90;0.67;;;31.50;49.60;;;;;;4900057;29;20604;-77
2023/09/15 11:45:32;;;;;;;2.67;0.80;;;31.40;49.20;;;;;;4912068;29;20180;-77
2023/09/15 11:47:59;;;;;;;2.20;0.70;;;31.30;50.40;;;;;;4926954;29;21060;-77
2023/09/15 11:50:26;;;;;;;2.53;0.90;;;31.40;51.10;;;;;;4943587;29;20589;-76
2023/09/15 11:52:52;;;;;;;2.47;1.10;;;31.60;51.60;;;;;;4934609;29;20589;-77
2023/09/15 11:55:22;;;;;;;1.70;0.80;;;31.70;51.00;;;;;;4918714;29;20631;-77
2023/09/15 11:57:50;;;;;;;2.00;0.80;;;31.60;50.20;;;;;;4929575;29;20663;-77
2023/09/15 12:00:19;;;;;;;2.43;1.10;;;31.60;50.60;;;;;;4929381;29;20596;-76
2023/09/15 12:02:46;;;;;;;1.80;0.93;;;31.60;48.70;;;;;;4931516;29;20605;-76
2023/09/15 12:05:15;;;;;;;1.53;0.70;;;31.40;49.20;;;;;;4936270;29;20644;-77
2023/09/15 12:07:45;;;;;;;1.60;0.80;;;31.30;49.90;;;;;;4938279;29;20635;-77
2023/09/15 12:10:15;;;;;;;1.93;0.70;;;31.30;50.00;;;;;;4916878;29;20596;-77
2023/09/15 12:12:42;;;;;;;2.23;0.80;;;31.30;50.10;;;;;;4926219;29;20957;-77
2023/09/15 12:15:08;;;;;;;2.30;0.77;;;31.20;50.00;;;;;;4934286;29;20600;-77
2023/09/15 12:17:34;;;;;;;2.00;0.80;;;31.10;49.30;;;;;;4926284;29;20595;-77
2023/09/15 12:20:04;;;;;;;1.40;0.60;;;31.00;49.80;;;;;;4918222;29;20598;-76
2023/09/15 12:22:31;;;;;;;2.43;1.00;;;30.90;49.10;;;;;;4914362;29;20625;-76
2023/09/15 12:24:58;;;;;;;1.40;0.70;;;30.90;50.00;;;;;;4932480;29;20603;-77
2023/09/15 12:27:25;;;;;;;1.73;0.70;;;30.90;50.10;;;;;;4911638;29;20586;-77
2023/09/15 12:29:52;;;;;;;2.80;1.20;;;30.90;49.90;;;;;;4934576;29;20610;-77
2023/09/15 12:32:26;;;;;;;2.43;0.80;;;30.90;49.70;;;;;;4927687;29;20695;-77
2023/09/15 12:34:53;;;;;;;2.53;0.77;;;30.70;48.70;;;;;;4916087;29;20671;-76
2023/09/15 12:37:19;;;;;;;1.70;0.87;;;30.60;49.30;;;;;;4926242;29;20610;-78
2023/09/15 12:39:44;;;;;;;1.73;0.70;;;30.50;49.10;;;;;;4933598;29;20665;-77
2023/09/15 12:42:10;;;;;;;5.77;0.80;;;30.50;49.70;;;;;;4935113;29;20181;-77
2023/09/15 12:44:36;;;;;;;2.03;0.80;;;30.40;50.00;;;;;;4945150;29;20175;-77
2023/09/15 12:47:04;;;;;;;2.17;0.80;;;30.40;50.20;;;;;;4936844;29;20222;-77
2023/09/15 12:49:30;;;;;;;2.17;0.83;;;30.50;50.10;;;;;;4934475;29;20688;-78